Terminal Aerodrome Forecast
Issued by NWS

Home | Current Version | Previous Version | Text Only | Print | Product List | Glossary On
Versions: 1 2 3 4 5 6 7 8 9 10 11 12 13 14 15 16 17 18 19 20 21
000
FTUS45 KPSR 271700
TAFSDL
TAF
KSDL 271720Z 2718/2818 VRB03KT P6SM FEW150 SCT250
     FM272100 23008KT P6SM FEW150 SCT250
     FM280500 12004KT P6SM FEW150 BKN250
     FM281100 14006KT P6SM SCT050 BKN150=

USA.gov is the U.S. government's official web portal to all federal, state and local government web resources and services.